Time;durP1;ratioP1;P1;durP2;ratioP2;P2;SDS_P1;SDS_P2;PMS_P1;PMS_P2;Temp;Humidity;BMP_temperature;BMP_pressure;BME280_temperature;BME280_humidity;BME280_pressure;Samples;Min_cycle;Max_cycle;Signal;HPM_P1;HPM_P2
2022/03/08 00:02:24;;;;;;;7.85;5.53;;;-0.80;96.10;;;;;;5092271;28;20024;-78
2022/03/08 00:04:50;;;;;;;7.75;5.75;;;-0.90;96.10;;;;;;5092024;28;20484;-79
2022/03/08 00:07:15;;;;;;;8.65;6.78;;;-0.80;95.80;;;;;;5090901;28;20032;-79
2022/03/08 00:09:43;;;;;;;8.18;5.25;;;-0.90;95.60;;;;;;5091950;28;20745;-78
2022/03/08 00:12:10;;;;;;;8.00;5.63;;;-1.00;95.30;;;;;;5092007;28;20024;-78
2022/03/08 00:14:36;;;;;;;9.27;5.28;;;-1.10;95.20;;;;;;5091816;28;20477;-78
2022/03/08 00:17:03;;;;;;;7.97;5.45;;;-1.10;95.30;;;;;;5073707;28;20035;-79
2022/03/08 00:19:29;;;;;;;7.22;5.20;;;-1.10;95.00;;;;;;5091725;28;20058;-78
2022/03/08 00:21:55;;;;;;;9.18;5.78;;;-1.10;94.80;;;;;;5090344;28;20084;-78
2022/03/08 00:24:21;;;;;;;7.15;4.85;;;-1.20;95.00;;;;;;5071657;28;20067;-77
2022/03/08 00:26:47;;;;;;;7.72;4.80;;;-1.30;94.20;;;;;;5072127;28;20093;-77
2022/03/08 00:29:13;;;;;;;8.50;4.88;;;-1.40;94.10;;;;;;5071522;28;20420;-79
2022/03/08 00:31:39;;;;;;;6.82;5.05;;;-1.40;94.00;;;;;;5071495;28;20036;-77
2022/03/08 00:34:05;;;;;;;7.38;5.00;;;-1.40;94.00;;;;;;5071253;28;20025;-78
2022/03/08 00:36:32;;;;;;;6.80;4.65;;;-1.50;94.10;;;;;;5071199;28;20024;-76
2022/03/08 00:38:58;;;;;;;7.32;4.75;;;-1.50;93.90;;;;;;5079253;28;20016;-77
2022/03/08 00:41:25;;;;;;;8.02;5.22;;;-1.50;93.60;;;;;;5091740;28;20500;-78
2022/03/08 00:43:51;;;;;;;6.28;3.85;;;-1.60;93.40;;;;;;5091794;28;20016;-77
2022/03/08 00:46:17;;;;;;;7.95;4.80;;;-1.70;93.10;;;;;;5091188;28;20484;-80
2022/03/08 00:48:43;;;;;;;7.80;4.80;;;-1.90;93.00;;;;;;5091531;28;20070;-76
2022/03/08 00:51:11;;;;;;;5.50;3.60;;;-1.90;93.30;;;;;;5091419;28;20020;-78
2022/03/08 00:53:36;;;;;;;5.72;4.28;;;-2.00;93.10;;;;;;5094578;28;20012;-78
2022/03/08 00:56:03;;;;;;;6.43;4.07;;;-2.00;93.30;;;;;;5089900;28;20111;-78
2022/03/08 00:58:28;;;;;;;8.15;4.93;;;-2.10;93.20;;;;;;5075079;28;20068;-77
2022/03/08 01:00:54;;;;;;;8.27;4.95;;;-2.20;93.40;;;;;;5075256;28;20423;-77
2022/03/08 01:03:20;;;;;;;7.13;3.90;;;-2.20;93.60;;;;;;5057554;28;20102;-78
2022/03/08 01:05:47;;;;;;;7.28;4.95;;;-2.20;93.60;;;;;;5074865;28;20126;-78
2022/03/08 01:08:14;;;;;;;8.93;5.30;;;-2.20;93.50;;;;;;5075346;28;20094;-76
2022/03/08 01:10:40;;;;;;;8.82;5.50;;;-2.30;93.20;;;;;;5057155;28;20032;-77
2022/03/08 01:13:06;;;;;;;6.13;4.53;;;-2.30;93.30;;;;;;5087337;28;20040;-76
2022/03/08 01:15:32;;;;;;;7.25;4.47;;;-2.30;93.20;;;;;;5093136;28;20046;-77
2022/03/08 01:17:58;;;;;;;7.20;4.82;;;-2.30;93.40;;;;;;5076572;28;20036;-76
2022/03/08 01:20:25;;;;;;;7.32;4.40;;;-2.30;93.30;;;;;;5094477;28;20036;-76
2022/03/08 01:22:51;;;;;;;8.70;5.32;;;-2.40;93.30;;;;;;5094296;28;20500;-77
2022/03/08 01:25:18;;;;;;;8.85;5.32;;;-2.40;93.40;;;;;;5076079;28;20028;-76
2022/03/08 01:27:44;;;;;;;7.32;5.40;;;-2.40;93.60;;;;;;5076004;28;20478;-76
2022/03/08 01:30:12;;;;;;;9.68;4.95;;;-2.40;93.40;;;;;;5093594;28;20042;-77
2022/03/08 01:32:39;;;;;;;9.02;5.60;;;-2.40;93.50;;;;;;5093342;28;20016;-76
2022/03/08 01:35:05;;;;;;;8.35;4.75;;;-2.40;93.60;;;;;;5094505;28;20492;-77
2022/03/08 01:37:31;;;;;;;8.93;5.70;;;-2.50;93.70;;;;;;5094163;28;20043;-77
2022/03/08 01:39:56;;;;;;;7.03;5.50;;;-2.40;93.70;;;;;;5094012;28;20024;-78
2022/03/08 01:42:24;;;;;;;7.40;4.55;;;-2.40;93.60;;;;;;5094103;28;20016;-76
2022/03/08 01:44:52;;;;;;;7.32;4.90;;;-2.40;93.80;;;;;;5093985;28;20107;-76
2022/03/08 01:47:20;;;;;;;8.95;4.22;;;-2.30;93.90;;;;;;5093887;28;20043;-76
2022/03/08 01:49:47;;;;;;;7.75;5.00;;;-2.30;93.90;;;;;;5080322;28;20059;-77
2022/03/08 01:52:15;;;;;;;6.90;5.13;;;-2.30;93.80;;;;;;5073526;28;20082;-77
2022/03/08 01:54:42;;;;;;;7.57;4.72;;;-2.30;93.70;;;;;;5055586;28;20028;-77
2022/03/08 01:57:08;;;;;;;6.68;4.88;;;-2.30;93.70;;;;;;5073585;28;20091;-77
2022/03/08 01:59:34;;;;;;;8.88;4.65;;;-2.30;93.80;;;;;;5074029;28;20086;-78
2022/03/08 02:02:00;;;;;;;8.70;5.65;;;-2.30;93.60;;;;;;5074022;28;20031;-77
2022/03/08 02:04:26;;;;;;;8.88;5.55;;;-2.30;93.50;;;;;;5073734;28;20044;-78
2022/03/08 02:06:52;;;;;;;9.00;5.68;;;-2.40;93.50;;;;;;5074457;28;20061;-77
2022/03/08 02:09:18;;;;;;;8.13;4.60;;;-2.40;93.40;;;;;;5073720;28;20513;-77
2022/03/08 02:11:44;;;;;;;6.32;4.20;;;-2.40;93.40;;;;;;5074923;28;20075;-76
2022/03/08 02:14:10;;;;;;;8.57;5.20;;;-2.50;93.40;;;;;;5075914;28;20056;-77
2022/03/08 02:16:36;;;;;;;7.65;5.18;;;-2.50;93.30;;;;;;5074869;28;20033;-76
2022/03/08 02:19:02;;;;;;;8.32;5.93;;;-2.60;93.30;;;;;;5093370;28;20077;-77
2022/03/08 02:21:32;;;;;;;7.47;6.18;;;-2.60;93.40;;;;;;5087578;28;20570;-78
2022/03/08 02:23:59;;;;;;;10.40;6.32;;;-2.50;93.50;;;;;;5073515;28;20052;-77
2022/03/08 02:26:26;;;;;;;8.93;5.35;;;-2.60;93.40;;;;;;5056566;28;20104;-77
2022/03/08 02:28:53;;;;;;;7.20;4.93;;;-2.60;93.40;;;;;;5073404;28;20040;-78
2022/03/08 02:31:18;;;;;;;10.40;5.45;;;-2.60;93.40;;;;;;5073114;28;20032;-77
2022/03/08 02:33:44;;;;;;;7.93;5.20;;;-2.60;93.70;;;;;;5055123;28;20029;-76
2022/03/08 02:36:10;;;;;;;10.93;6.65;;;-2.60;93.60;;;;;;5054737;28;20489;-76
2022/03/08 02:38:36;;;;;;;10.00;5.80;;;-2.60;93.70;;;;;;5072709;28;20078;-76
2022/03/08 02:41:02;;;;;;;7.90;5.50;;;-2.60;93.70;;;;;;5072228;28;20043;-76
2022/03/08 02:43:28;;;;;;;8.75;5.70;;;-2.60;93.70;;;;;;5072696;28;20028;-76
2022/03/08 02:45:54;;;;;;;8.45;6.05;;;-2.60;93.70;;;;;;5086905;28;20024;-76
2022/03/08 02:48:24;;;;;;;9.52;6.55;;;-2.60;93.80;;;;;;5092773;28;20031;-77
2022/03/08 02:50:50;;;;;;;13.10;6.15;;;-2.60;93.80;;;;;;5092835;28;20024;-77
2022/03/08 02:53:15;;;;;;;11.63;5.90;;;-2.60;93.70;;;;;;5093031;28;20020;-78
2022/03/08 02:55:41;;;;;;;7.25;5.32;;;-2.70;93.50;;;;;;5074870;28;20043;-78
2022/03/08 02:58:07;;;;;;;8.65;6.35;;;-2.70;93.60;;;;;;5081506;28;20167;-75
2022/03/08 03:00:34;;;;;;;7.70;4.90;;;-2.70;93.70;;;;;;5072391;28;20028;-76
2022/03/08 03:03:00;;;;;;;12.45;5.78;;;-2.70;93.90;;;;;;5072413;28;20500;-76
2022/03/08 03:05:26;;;;;;;8.68;6.32;;;-2.70;93.90;;;;;;5088322;28;20016;-76
2022/03/08 03:07:52;;;;;;;8.52;5.47;;;-2.70;94.00;;;;;;5092577;28;20039;-76
2022/03/08 03:10:20;;;;;;;10.82;6.88;;;-2.70;93.90;;;;;;5092434;28;20020;-77
2022/03/08 03:12:47;;;;;;;11.98;6.03;;;-2.70;93.70;;;;;;5091360;28;20119;-74
2022/03/08 03:15:14;;;;;;;9.70;6.38;;;-2.70;93.60;;;;;;5091831;28;20028;-78
2022/03/08 03:17:41;;;;;;;8.95;5.20;;;-2.80;93.70;;;;;;5091893;28;20111;-77
2022/03/08 03:20:09;;;;;;;9.60;5.80;;;-2.80;93.80;;;;;;5092337;28;20023;-75
2022/03/08 03:22:36;;;;;;;10.18;6.10;;;-2.80;93.90;;;;;;5092126;28;20040;-77
2022/03/08 03:25:02;;;;;;;9.52;6.35;;;-2.80;93.90;;;;;;5092274;28;20099;-74
2022/03/08 03:27:28;;;;;;;8.93;6.32;;;-2.80;93.90;;;;;;5091201;28;20477;-76
2022/03/08 03:29:54;;;;;;;9.85;5.70;;;-2.80;93.60;;;;;;5072128;28;20031;-76
2022/03/08 03:32:20;;;;;;;8.40;5.90;;;-2.80;93.70;;;;;;5072071;28;20020;-78
2022/03/08 03:34:46;;;;;;;8.52;6.22;;;-2.70;93.70;;;;;;5072224;28;20028;-77
2022/03/08 03:37:12;;;;;;;9.23;6.33;;;-2.80;93.70;;;;;;5054124;28;20516;-76
2022/03/08 03:39:38;;;;;;;10.93;7.40;;;-2.80;93.70;;;;;;5072034;28;20035;-77
2022/03/08 03:42:04;;;;;;;9.88;5.72;;;-2.80;93.80;;;;;;5072068;28;20032;-76
2022/03/08 03:44:30;;;;;;;9.80;6.78;;;-2.80;93.50;;;;;;5075860;28;20012;-76
2022/03/08 03:46:56;;;;;;;7.93;6.18;;;-2.80;93.70;;;;;;5074533;28;20025;-76
2022/03/08 03:49:22;;;;;;;8.77;5.95;;;-2.70;93.90;;;;;;5072085;28;20021;-76
2022/03/08 03:51:50;;;;;;;10.52;6.40;;;-2.80;93.60;;;;;;5071832;28;20060;-76
2022/03/08 03:54:18;;;;;;;9.55;6.35;;;-2.80;93.70;;;;;;5071726;28;20057;-77
2022/03/08 03:56:44;;;;;;;8.00;6.43;;;-2.80;93.60;;;;;;5071891;28;20028;-76
2022/03/08 03:59:10;;;;;;;8.35;6.15;;;-2.80;93.70;;;;;;5071549;28;20436;-77
2022/03/08 04:01:36;;;;;;;9.05;7.00;;;-2.80;93.80;;;;;;5071380;28;20016;-76
2022/03/08 04:04:02;;;;;;;9.38;6.32;;;-2.80;93.80;;;;;;5071633;28;20461;-76
2022/03/08 04:06:27;;;;;;;11.23;6.25;;;-2.80;93.60;;;;;;5053554;28;20024;-76
2022/03/08 04:08:53;;;;;;;10.50;6.55;;;-2.90;93.60;;;;;;5071975;28;20016;-77
2022/03/08 04:11:19;;;;;;;13.25;7.55;;;-2.90;93.80;;;;;;5073061;28;20491;-76
2022/03/08 04:13:45;;;;;;;11.27;7.10;;;-2.90;94.00;;;;;;5072948;28;20045;-77
2022/03/08 04:16:11;;;;;;;13.77;7.13;;;-2.90;94.30;;;;;;5087171;28;20058;-78
2022/03/08 04:18:37;;;;;;;9.93;6.32;;;-2.80;94.20;;;;;;5091786;28;20457;-76
2022/03/08 04:21:03;;;;;;;12.40;7.20;;;-2.80;94.10;;;;;;5091709;28;20106;-77
2022/03/08 04:23:29;;;;;;;11.23;6.95;;;-2.70;94.10;;;;;;5093365;28;20159;-77
2022/03/08 04:25:55;;;;;;;9.32;7.10;;;-2.70;94.00;;;;;;5094587;28;20028;-79
2022/03/08 04:28:21;;;;;;;9.50;6.63;;;-2.70;94.00;;;;;;5095387;28;20385;-77
2022/03/08 04:30:47;;;;;;;10.55;6.68;;;-2.70;94.00;;;;;;5077656;28;20032;-77
2022/03/08 04:33:13;;;;;;;9.70;6.70;;;-2.70;94.00;;;;;;5095476;28;20031;-78
2022/03/08 04:35:38;;;;;;;9.93;7.30;;;-2.60;94.00;;;;;;5095153;28;20058;-79
2022/03/08 04:38:04;;;;;;;4.25;2.90;;;-2.60;93.80;;;;;;5083659;28;20401;-77
2022/03/08 04:40:30;;;;;;;11.38;7.70;;;-2.60;93.80;;;;;;5075024;28;20123;-77
2022/03/08 04:42:56;;;;;;;9.38;6.40;;;-2.70;93.60;;;;;;5075450;28;20029;-77
2022/03/08 04:45:22;;;;;;;11.40;7.53;;;-2.70;93.70;;;;;;5066630;28;20081;-78
2022/03/08 04:47:48;;;;;;;12.88;6.93;;;-2.70;93.80;;;;;;5095172;28;20046;-77
2022/03/08 04:50:16;;;;;;;12.50;7.53;;;-2.70;93.90;;;;;;5095050;28;20473;-76
2022/03/08 04:52:43;;;;;;;11.77;7.55;;;-2.70;94.00;;;;;;5095094;28;20020;-76
2022/03/08 04:55:09;;;;;;;12.80;7.18;;;-2.70;93.90;;;;;;5081041;28;20689;-78
2022/03/08 04:57:35;;;;;;;13.68;6.38;;;-2.70;93.80;;;;;;5074666;28;20392;-77
2022/03/08 05:00:03;;;;;;;9.45;5.97;;;-2.70;93.80;;;;;;5074547;28;20021;-76
2022/03/08 05:02:29;;;;;;;8.20;5.28;;;-2.70;93.80;;;;;;5074042;28;20473;-75
2022/03/08 05:04:55;;;;;;;10.45;6.45;;;-2.60;93.80;;;;;;5084585;28;20032;-77
2022/03/08 05:07:21;;;;;;;9.93;6.53;;;-2.60;93.90;;;;;;5076464;28;20031;-76
2022/03/08 05:09:46;;;;;;;10.07;7.20;;;-2.50;93.90;;;;;;5094697;28;20107;-78
2022/03/08 05:12:12;;;;;;;10.18;7.32;;;-2.50;93.60;;;;;;5076246;28;20036;-76
2022/03/08 05:14:39;;;;;;;12.20;7.45;;;-2.50;93.60;;;;;;5094273;28;20078;-76
2022/03/08 05:17:05;;;;;;;11.73;7.23;;;-2.50;93.30;;;;;;5094316;28;20036;-79
2022/03/08 05:19:31;;;;;;;7.82;6.22;;;-2.50;93.40;;;;;;5093564;28;20026;-78
2022/03/08 05:21:56;;;;;;;12.25;6.72;;;-2.50;93.20;;;;;;5094561;28;20462;-77
2022/03/08 05:24:22;;;;;;;11.75;6.53;;;-2.60;93.00;;;;;;5094523;28;20016;-76
2022/03/08 05:26:48;;;;;;;12.27;6.72;;;-2.60;93.20;;;;;;5094328;28;20032;-76
2022/03/08 05:29:14;;;;;;;6.57;5.28;;;-2.60;93.50;;;;;;5076451;28;20051;-77
2022/03/08 05:31:39;;;;;;;10.77;6.43;;;-2.60;93.30;;;;;;5094453;28;20076;-77
2022/03/08 05:34:05;;;;;;;7.63;5.65;;;-2.60;93.30;;;;;;5080409;28;20033;-77
2022/03/08 05:36:31;;;;;;;8.57;6.63;;;-2.60;93.10;;;;;;5074265;28;20032;-77
2022/03/08 05:38:57;;;;;;;8.40;5.68;;;-2.70;93.00;;;;;;5073001;28;20096;-77
2022/03/08 05:41:23;;;;;;;9.15;5.82;;;-2.60;92.90;;;;;;5073851;28;20111;-79
2022/03/08 05:43:49;;;;;;;10.20;6.32;;;-2.60;93.10;;;;;;5073866;28;20035;-77
2022/03/08 05:46:14;;;;;;;8.43;4.68;;;-2.60;93.20;;;;;;5090937;28;20456;-81
2022/03/08 05:48:40;;;;;;;11.88;5.05;;;-2.60;93.10;;;;;;5088332;28;20060;-77
2022/03/08 05:51:06;;;;;;;9.25;6.05;;;-2.70;93.00;;;;;;5073571;28;20029;-77
2022/03/08 05:53:32;;;;;;;11.02;6.20;;;-2.70;93.10;;;;;;5055810;28;20032;-77
2022/03/08 05:55:58;;;;;;;8.50;4.10;;;-2.70;93.40;;;;;;5073429;28;20045;-78
2022/03/08 05:58:24;;;;;;;9.27;4.65;;;-2.70;93.60;;;;;;5073458;28;20070;-79
2022/03/08 06:00:49;;;;;;;6.85;4.28;;;-2.70;93.80;;;;;;5073884;28;20028;-77
2022/03/08 06:03:15;;;;;;;9.10;5.13;;;-2.70;93.70;;;;;;5073514;28;20023;-78
2022/03/08 06:05:41;;;;;;;11.13;5.25;;;-2.60;93.80;;;;;;5064986;28;20028;-78
2022/03/08 06:08:07;;;;;;;8.93;5.53;;;-2.60;93.50;;;;;;5092950;28;20473;-79
2022/03/08 06:10:33;;;;;;;6.72;3.95;;;-2.60;92.70;;;;;;5092955;28;20617;-75
2022/03/08 06:12:59;;;;;;;8.52;4.57;;;-2.60;92.10;;;;;;5089028;28;20405;-78
2022/03/08 06:15:24;;;;;;;7.72;3.70;;;-2.80;91.80;;;;;;5091311;28;20024;-76
2022/03/08 06:17:51;;;;;;;14.43;5.05;;;-2.80;91.70;;;;;;5090958;28;20400;-76
2022/03/08 06:20:16;;;;;;;6.28;2.67;;;-2.90;91.90;;;;;;5099572;28;20027;-77
2022/03/08 06:22:42;;;;;;;15.38;6.30;;;-2.90;92.20;;;;;;5098155;28;20099;-77
2022/03/08 06:25:09;;;;;;;5.30;4.07;;;-2.90;92.20;;;;;;5085758;28;20030;-79
2022/03/08 06:27:34;;;;;;;7.93;4.90;;;-2.90;92.40;;;;;;5091955;28;20095;-79
2022/03/08 06:30:00;;;;;;;7.07;4.72;;;-2.90;91.80;;;;;;5092836;28;20067;-76
2022/03/08 06:32:26;;;;;;;6.85;4.70;;;-2.80;91.90;;;;;;5083011;28;20025;-81
2022/03/08 06:34:52;;;;;;;6.15;3.80;;;-2.80;91.90;;;;;;5081053;28;20081;-78
2022/03/08 06:37:18;;;;;;;7.22;3.97;;;-2.80;91.90;;;;;;5073221;28;20043;-80
2022/03/08 06:39:46;;;;;;;6.17;4.10;;;-2.80;92.00;;;;;;5073022;28;20020;-82
2022/03/08 06:42:12;;;;;;;9.02;5.20;;;-2.80;92.00;;;;;;5082613;28;20393;-83
2022/03/08 06:44:40;;;;;;;7.80;4.55;;;-2.70;92.10;;;;;;5091445;28;20043;-80
2022/03/08 06:47:07;;;;;;;7.55;4.57;;;-2.60;92.00;;;;;;5094323;28;20031;-82
2022/03/08 06:49:34;;;;;;;7.53;4.72;;;-2.60;91.50;;;;;;5078845;28;20046;-86
2022/03/08 06:52:00;;;;;;;13.85;5.88;;;-2.50;91.60;;;;;;5095079;28;20032;-86
2022/03/08 06:54:26;;;;;;;10.45;4.32;;;-2.40;91.60;;;;;;5090993;28;20342;-84
2022/03/08 06:56:52;;;;;;;4.53;3.83;;;-2.40;91.30;;;;;;5087262;28;20040;-84
2022/03/08 06:59:18;;;;;;;10.77;5.43;;;-2.50;91.40;;;;;;5092869;28;20443;-82
2022/03/08 07:01:44;;;;;;;12.50;4.22;;;-2.50;91.50;;;;;;5090216;28;20027;-86
2022/03/08 07:04:10;;;;;;;4.82;2.95;;;-2.50;90.80;;;;;;5094075;28;20028;-80
2022/03/08 07:06:36;;;;;;;8.55;4.10;;;-2.60;90.80;;;;;;5094277;28;20028;-80
2022/03/08 07:09:02;;;;;;;8.30;4.13;;;-2.70;90.80;;;;;;5074344;28;20470;-80
2022/03/08 07:11:28;;;;;;;8.32;4.53;;;-2.70;90.70;;;;;;5084157;28;20107;-79
2022/03/08 07:13:54;;;;;;;7.38;3.80;;;-2.80;91.00;;;;;;5093317;28;20140;-80
2022/03/08 07:16:20;;;;;;;8.48;4.65;;;-2.80;91.10;;;;;;5093577;28;20043;-82
2022/03/08 07:18:46;;;;;;;11.75;6.20;;;-2.80;91.00;;;;;;5091945;28;20020;-79
2022/03/08 07:21:11;;;;;;;15.25;6.15;;;-2.80;91.10;;;;;;5075227;28;20499;-80
2022/03/08 07:23:37;;;;;;;10.40;5.57;;;-2.80;91.00;;;;;;5094229;28;20073;-78
2022/03/08 07:26:03;;;;;;;6.15;4.15;;;-2.80;91.10;;;;;;5095680;28;20469;-79
2022/03/08 07:28:29;;;;;;;9.35;4.72;;;-2.70;91.30;;;;;;5094603;28;20109;-79
2022/03/08 07:30:55;;;;;;;7.82;4.18;;;-2.60;91.30;;;;;;5097374;28;20107;-81
2022/03/08 07:33:21;;;;;;;11.38;4.55;;;-2.50;91.00;;;;;;5098748;28;20023;-77
2022/03/08 07:35:46;;;;;;;8.15;4.70;;;-2.40;90.20;;;;;;5093023;28;20034;-79
2022/03/08 07:38:12;;;;;;;9.60;4.47;;;-2.40;89.90;;;;;;5093744;28;20025;-81
2022/03/08 07:40:38;;;;;;;6.72;5.00;;;-2.40;90.30;;;;;;5092747;28;20073;-77
2022/03/08 07:43:04;;;;;;;6.55;4.28;;;-2.40;88.60;;;;;;5092283;28;20028;-79
2022/03/08 07:45:30;;;;;;;8.05;4.35;;;-2.50;89.30;;;;;;5092310;28;20016;-78
2022/03/08 07:47:56;;;;;;;7.60;5.20;;;-2.50;89.30;;;;;;5094946;28;20028;-87
2022/03/08 07:50:22;;;;;;;5.63;4.93;;;-2.60;88.90;;;;;;5083823;28;20023;-85
2022/03/08 07:52:49;;;;;;;8.23;4.70;;;-2.70;89.50;;;;;;5060632;28;20040;-85
2022/03/08 07:55:15;;;;;;;11.10;5.05;;;-2.70;90.00;;;;;;5074100;28;20481;-84
2022/03/08 07:58:02;;;;;;;5.90;3.63;;;-2.60;89.70;;;;;;5069701;28;20032;-86
2022/03/08 08:00:50;;;;;;;8.65;5.50;;;-2.60;90.00;;;;;;5089212;28;20135;-87
2022/03/08 08:03:16;;;;;;;8.77;5.25;;;-2.60;89.50;;;;;;5095463;28;20036;-88
2022/03/08 08:05:42;;;;;;;8.77;5.75;;;-2.50;89.70;;;;;;5117120;28;20024;-86
2022/03/08 08:08:08;;;;;;;5.75;4.22;;;-2.50;90.00;;;;;;5092259;28;20549;-86
2022/03/08 08:10:34;;;;;;;7.95;5.57;;;-2.40;90.10;;;;;;5101211;28;20050;-85
2022/03/08 08:13:00;;;;;;;10.20;5.05;;;-2.40;89.80;;;;;;5100439;28;20044;-89
2022/03/08 08:15:26;;;;;;;7.57;4.25;;;-2.30;88.80;;;;;;5081919;28;20031;-88
2022/03/08 08:17:52;;;;;;;17.70;5.30;;;-2.30;87.70;;;;;;5080794;28;20070;-87
2022/03/08 08:20:18;;;;;;;8.80;4.82;;;-2.40;88.00;;;;;;5081163;28;20198;-89
2022/03/08 08:22:44;;;;;;;4.15;3.15;;;-2.40;87.90;;;;;;5080167;28;20021;-85
2022/03/08 08:25:10;;;;;;;7.10;4.80;;;-2.40;87.10;;;;;;5082747;28;20108;-90
2022/03/08 08:27:37;;;;;;;10.80;4.70;;;-2.50;87.20;;;;;;5065360;28;20024;-87
2022/03/08 08:30:05;;;;;;;3.22;2.67;;;-2.60;87.70;;;;;;5068755;28;20039;-88
2022/03/08 08:32:32;;;;;;;7.18;5.13;;;-2.60;88.00;;;;;;5100214;28;20023;-89
2022/03/08 08:34:57;;;;;;;11.18;5.75;;;-2.70;87.50;;;;;;5096694;28;20024;-86
2022/03/08 08:37:23;;;;;;;7.75;6.13;;;-2.70;88.30;;;;;;5080883;28;20470;-89
2022/03/08 08:39:49;;;;;;;8.07;5.63;;;-2.70;88.10;;;;;;5078553;28;20036;-89
2022/03/08 08:42:15;;;;;;;8.40;3.42;;;-2.60;88.10;;;;;;5060050;28;20432;-83
2022/03/08 08:44:42;;;;;;;7.38;4.30;;;-2.60;87.70;;;;;;5093579;28;20085;-86
2022/03/08 08:47:08;;;;;;;15.77;7.22;;;-2.60;87.80;;;;;;5097595;28;20032;-86
2022/03/08 08:49:34;;;;;;;9.52;5.72;;;-2.70;88.60;;;;;;5092675;28;20028;-83
2022/03/08 08:52:00;;;;;;;9.90;6.20;;;-2.60;89.20;;;;;;5108545;28;20024;-87
2022/03/08 08:54:25;;;;;;;9.48;6.82;;;-2.50;88.50;;;;;;5100393;28;20031;-85
2022/03/08 08:56:51;;;;;;;9.88;6.35;;;-2.60;87.10;;;;;;5105970;28;20039;-85
2022/03/08 08:59:17;;;;;;;11.48;5.80;;;-2.50;87.60;;;;;;5099165;28;20043;-85
2022/03/08 09:01:43;;;;;;;8.32;5.97;;;-2.50;87.60;;;;;;5096904;28;20108;-89
2022/03/08 09:04:09;;;;;;;8.88;5.65;;;-2.40;87.30;;;;;;5097854;28;20392;-86
2022/03/08 09:06:40;;;;;;;9.43;5.47;;;-2.40;87.60;;;;;;5101801;28;20024;-85
2022/03/08 09:09:06;;;;;;;9.00;5.00;;;-2.40;87.10;;;;;;5085058;28;20032;-86
2022/03/08 09:11:31;;;;;;;9.75;6.97;;;-2.30;87.00;;;;;;5116943;28;20032;-87
2022/03/08 09:13:58;;;;;;;10.15;6.20;;;-2.30;87.20;;;;;;5100786;28;20123;-85
2022/03/08 09:16:24;;;;;;;7.03;5.10;;;-2.10;86.90;;;;;;5080180;28;20036;-86
2022/03/08 09:18:50;;;;;;;10.10;6.85;;;-2.20;85.70;;;;;;5077234;28;20134;-90
2022/03/08 09:21:16;;;;;;;7.88;5.68;;;-2.20;85.70;;;;;;5049573;28;20374;-84
2022/03/08 09:23:42;;;;;;;8.52;5.82;;;-2.20;85.30;;;;;;5071258;28;20020;-84
2022/03/08 09:26:08;;;;;;;9.02;6.07;;;-2.30;85.50;;;;;;5078927;28;20032;-86
2022/03/08 09:28:34;;;;;;;8.67;5.60;;;-2.40;85.40;;;;;;5096456;28;20020;-85
2022/03/08 09:31:02;;;;;;;10.50;6.63;;;-2.30;85.70;;;;;;5094106;28;20016;-85
2022/03/08 09:33:28;;;;;;;14.88;7.22;;;-2.30;86.00;;;;;;5077106;28;20035;-80
2022/03/08 09:35:54;;;;;;;9.13;6.38;;;-2.30;85.00;;;;;;5095138;28;20024;-77
2022/03/08 09:38:20;;;;;;;9.52;6.30;;;-2.30;85.70;;;;;;5094550;28;20028;-81
2022/03/08 09:40:47;;;;;;;11.70;7.65;;;-2.30;85.30;;;;;;5094421;28;20021;-80
2022/03/08 09:43:14;;;;;;;9.02;6.50;;;-2.20;83.90;;;;;;5094698;28;20028;-83
2022/03/08 09:45:40;;;;;;;8.70;6.10;;;-2.40;84.00;;;;;;5082712;28;20029;-83
2022/03/08 09:48:06;;;;;;;7.88;6.00;;;-2.60;84.10;;;;;;5093594;28;20039;-84
2022/03/08 09:50:33;;;;;;;11.63;7.20;;;-2.50;85.20;;;;;;5095469;28;20059;-81
2022/03/08 09:53:00;;;;;;;9.38;5.82;;;-2.50;84.10;;;;;;5095034;28;20032;-84
2022/03/08 09:55:26;;;;;;;11.50;5.30;;;-2.40;84.70;;;;;;5095292;28;20362;-83
2022/03/08 09:57:54;;;;;;;10.57;6.10;;;-2.30;84.90;;;;;;5094143;28;20059;-83
2022/03/08 10:00:23;;;;;;;13.43;6.55;;;-2.20;84.10;;;;;;5093982;28;20016;-81
2022/03/08 10:02:52;;;;;;;10.98;5.82;;;-2.20;83.00;;;;;;5094200;28;20027;-81
2022/03/08 10:05:23;;;;;;;10.27;6.55;;;-2.20;83.80;;;;;;5091123;28;20024;-81
2022/03/08 10:08:10;;;;;;;8.93;5.65;;;-2.20;82.70;;;;;;5093834;28;20025;-81
2022/03/08 10:10:44;;;;;;;8.85;6.07;;;-2.20;83.50;;;;;;5093715;28;20016;-81
2022/03/08 10:13:11;;;;;;;10.10;5.55;;;-2.20;83.40;;;;;;5094092;28;20488;-82
2022/03/08 10:15:37;;;;;;;;;;;-2.20;83.60;;;;;;5094647;28;20072;-83
2022/03/08 10:18:03;;;;;;;8.75;5.93;;;-2.20;83.60;;;;;;5094320;28;19916;-82
2022/03/08 10:20:31;;;;;;;10.18;5.80;;;-2.20;83.10;;;;;;5091285;28;20032;-82
2022/03/08 10:22:59;;;;;;;11.25;5.07;;;-2.30;83.70;;;;;;5094664;28;20043;-86
2022/03/08 10:25:28;;;;;;;9.10;5.30;;;-2.30;83.70;;;;;;5093765;28;20024;-81
2022/03/08 10:27:54;;;;;;;8.98;5.40;;;-2.10;83.30;;;;;;5094772;28;20031;-83
2022/03/08 10:30:22;;;;;;;9.80;8.40;;;-2.00;83.60;;;;;;5077284;28;20460;-84
2022/03/08 10:32:48;;;;;;;11.43;7.75;;;-2.00;82.80;;;;;;5096041;28;20046;-83
2022/03/08 10:35:24;;;;;;;14.02;7.25;;;-1.90;82.90;;;;;;5097884;28;20022;-84
2022/03/08 10:37:50;;;;;;;11.45;8.13;;;-1.80;82.70;;;;;;5092488;28;20389;-83
2022/03/08 10:40:29;;;;;;;10.52;7.35;;;-1.90;82.30;;;;;;5059660;28;20029;-82
2022/03/08 10:43:07;;;;;;;10.63;6.95;;;-1.90;81.80;;;;;;5078705;28;20044;-81
2022/03/08 10:45:34;;;;;;;;;;;-2.00;82.10;;;;;;5077045;28;20024;-81
2022/03/08 10:48:04;;;;;;;12.52;6.85;;;-2.10;82.10;;;;;;5101422;28;19904;-82
2022/03/08 10:50:31;;;;;;;10.98;6.78;;;-2.10;82.60;;;;;;5095774;28;20058;-81
2022/03/08 10:52:59;;;;;;;11.38;6.85;;;-2.10;82.20;;;;;;5095773;28;20020;-80
2022/03/08 10:55:36;;;;;;;8.52;6.40;;;-2.00;83.20;;;;;;5091328;28;20027;-82
2022/03/08 10:58:06;;;;;;;;;;;-1.80;82.90;;;;;;5092361;28;20531;-78
2022/03/08 11:00:40;;;;;;;10.50;6.65;;;-1.80;82.80;;;;;;5076068;28;19951;-82
2022/03/08 11:03:08;;;;;;;10.40;7.32;;;-1.70;82.20;;;;;;5097735;28;20129;-81
2022/03/08 11:05:37;;;;;;;16.48;9.38;;;-1.80;81.20;;;;;;5101787;28;20055;-84
2022/03/08 11:08:03;;;;;;;10.98;6.85;;;-2.00;80.80;;;;;;5093640;28;20031;-83
2022/03/08 11:10:30;;;;;;;15.10;9.70;;;-2.00;81.70;;;;;;5092709;28;20020;-82
2022/03/08 11:12:57;;;;;;;25.85;8.65;;;-2.00;81.70;;;;;;5092691;28;20676;-85
2022/03/08 11:15:24;;;;;;;9.23;5.47;;;-1.90;81.30;;;;;;5075109;28;20028;-83
2022/03/08 11:17:51;;;;;;;;;;;-2.00;81.00;;;;;;5072786;28;20485;-83
2022/03/08 11:20:19;;;;;;;13.35;6.50;;;-2.10;81.10;;;;;;5088833;28;19965;-83
2022/03/08 11:22:48;;;;;;;10.15;7.03;;;-2.30;81.20;;;;;;5073444;28;20020;-84
2022/03/08 11:25:16;;;;;;;10.38;4.30;;;-2.30;82.20;;;;;;5055088;28;20500;-83
2022/03/08 11:27:44;;;;;;;11.75;6.40;;;-2.40;82.50;;;;;;5072954;28;20028;-84
2022/03/08 11:30:17;;;;;;;11.43;9.30;;;-2.50;82.20;;;;;;5073570;28;20024;-86
2022/03/08 11:33:04;;;;;;;10.13;5.68;;;-2.50;83.30;;;;;;5073457;28;20077;-83
2022/03/08 11:35:50;;;;;;;15.05;7.15;;;-2.20;83.70;;;;;;5093000;28;20035;-81
2022/03/08 11:38:16;;;;;;;9.55;6.68;;;-2.20;82.50;;;;;;5094734;28;20610;-83
2022/03/08 11:40:54;;;;;;;11.23;6.55;;;-2.30;82.00;;;;;;5080989;28;20032;-83
2022/03/08 11:43:35;;;;;;;11.10;6.28;;;-2.30;82.60;;;;;;5076637;28;20023;-81
2022/03/08 11:46:18;;;;;;;10.93;6.05;;;-2.40;82.80;;;;;;5091998;28;20079;-81
2022/03/08 11:49:03;;;;;;;7.53;4.75;;;-2.20;82.70;;;;;;5076622;28;20021;-80
2022/03/08 11:51:33;;;;;;;8.02;4.95;;;-2.20;82.00;;;;;;5072086;28;20021;-82
2022/03/08 11:54:24;;;;;;;13.15;6.78;;;-2.30;82.80;;;;;;5073358;28;20035;-82
2022/03/08 11:56:52;;;;;;;9.63;5.97;;;-2.30;82.00;;;;;;5079270;28;20024;-83
2022/03/08 11:59:18;;;;;;;12.13;8.07;;;-2.40;82.80;;;;;;5094104;28;20099;-82
2022/03/08 12:01:44;;;;;;;9.15;6.00;;;-2.30;82.50;;;;;;5084464;28;20398;-82
2022/03/08 12:04:13;;;;;;;8.98;6.50;;;-2.20;82.40;;;;;;5061226;28;20021;-85
2022/03/08 12:06:40;;;;;;;14.00;6.68;;;-2.40;82.40;;;;;;5073738;28;20036;-82
2022/03/08 12:09:15;;;;;;;10.07;6.97;;;-2.50;83.00;;;;;;5088883;28;20385;-81
2022/03/08 12:12:01;;;;;;;9.38;5.05;;;-2.50;83.30;;;;;;5096391;28;20020;-82
2022/03/08 12:14:32;;;;;;;12.48;7.10;;;-2.60;83.90;;;;;;5092500;28;20048;-80
2022/03/08 12:17:19;;;;;;;8.02;6.78;;;-2.60;84.80;;;;;;5075584;28;20500;-81
2022/03/08 12:19:47;;;;;;;8.32;5.63;;;-2.50;84.40;;;;;;5072155;28;20063;-84
2022/03/08 12:22:18;;;;;;;;;;;-2.50;83.40;;;;;;5073161;28;20130;-83
2022/03/08 12:24:55;;;;;;;9.55;5.13;;;-2.40;83.70;;;;;;5071709;28;19912;-83
2022/03/08 12:27:23;;;;;;;14.45;7.07;;;-2.40;83.80;;;;;;5072512;28;20032;-81
2022/03/08 12:29:58;;;;;;;12.65;5.75;;;-2.40;83.60;;;;;;5072206;28;20397;-85
2022/03/08 12:32:29;;;;;;;11.85;7.35;;;-2.50;83.70;;;;;;5072049;28;20115;-78
2022/03/08 12:34:58;;;;;;;12.60;4.93;;;-2.60;83.60;;;;;;5080868;28;20016;-79
2022/03/08 12:37:58;;;;;;;15.23;5.75;;;-2.60;83.70;;;;;;5092717;28;20043;-83
2022/03/08 12:40:27;;;;;;;9.30;5.60;;;-2.70;83.70;;;;;;5088943;28;20047;-81
2022/03/08 12:43:00;;;;;;;7.25;4.85;;;-2.70;84.20;;;;;;5094195;28;20028;-82
2022/03/08 12:45:31;;;;;;;16.13;9.35;;;-2.70;83.80;;;;;;5098670;28;20027;-81
2022/03/08 12:48:01;;;;;;;11.57;6.35;;;-2.70;84.10;;;;;;5106283;28;20027;-80